sensor_id;sensor_type;location;lat;lon;timestamp;pressure;altitude;pressure_sealevel;temperature;humidity
44926;BME280;30662;51.210;7.656;2022-10-16T00:02:01;151819.38;;;12.09;100.00
44926;BME280;30662;51.210;7.656;2022-10-16T00:04:27;151823.22;;;12.11;100.00
44926;BME280;30662;51.210;7.656;2022-10-16T00:06:53;151833.34;;;12.15;100.00
44926;BME280;30662;51.210;7.656;2022-10-16T00:09:19;151848.56;;;12.21;100.00
44926;BME280;30662;51.210;7.656;2022-10-16T00:11:45;151827.00;;;12.12;100.00
44926;BME280;30662;51.210;7.656;2022-10-16T00:14:13;151851.09;;;12.22;100.00
44926;BME280;30662;51.210;7.656;2022-10-16T00:16:39;151843.50;;;12.19;100.00
44926;BME280;30662;51.210;7.656;2022-10-16T00:19:05;151818.13;;;12.09;100.00
44926;BME280;30662;51.210;7.656;2022-10-16T00:21:32;151842.22;;;12.19;100.00
44926;BME280;30662;51.210;7.656;2022-10-16T00:24:03;151868.81;;;12.29;100.00
44926;BME280;30662;51.210;7.656;2022-10-16T00:26:31;151884.03;;;12.35;100.00
44926;BME280;30662;51.210;7.656;2022-10-16T00:28:57;151880.25;;;12.34;100.00
44926;BME280;30662;51.210;7.656;2022-10-16T00:31:24;151889.09;;;12.37;100.00
44926;BME280;30662;51.210;7.656;2022-10-16T00:33:50;151870.09;;;12.30;100.00
44926;BME280;30662;51.210;7.656;2022-10-16T00:36:21;151844.75;;;12.20;100.00
44926;BME280;30662;51.210;7.656;2022-10-16T00:38:50;151849.81;;;12.22;100.00
44926;BME280;30662;51.210;7.656;2022-10-16T00:41:18;151842.22;;;12.19;100.00
44926;BME280;30662;51.210;7.656;2022-10-16T00:43:49;151848.56;;;12.21;100.00
44926;BME280;30662;51.210;7.656;2022-10-16T00:46:20;151825.75;;;12.12;100.00
44926;BME280;30662;51.210;7.656;2022-10-16T00:49:14;151852.34;;;12.23;100.00
44926;BME280;30662;51.210;7.656;2022-10-16T00:51:43;151844.75;;;12.20;100.00
44926;BME280;30662;51.210;7.656;2022-10-16T00:54:29;151856.19;;;12.24;100.00
44926;BME280;30662;51.210;7.656;2022-10-16T00:56:58;151820.69;;;12.10;100.00
44926;BME280;30662;51.210;7.656;2022-10-16T01:01:54;151820.69;;;12.10;100.00
44926;BME280;30662;51.210;7.656;2022-10-16T01:04:20;151797.84;;;12.01;100.00
44926;BME280;30662;51.210;7.656;2022-10-16T01:07:21;151806.75;;;12.04;100.00
44926;BME280;30662;51.210;7.656;2022-10-16T01:13:10;151794.06;;;11.99;100.00
44926;BME280;30662;51.210;7.656;2022-10-16T01:15:42;151805.47;;;12.04;100.00
44926;BME280;30662;51.210;7.656;2022-10-16T01:18:16;151811.81;;;12.06;100.00
44926;BME280;30662;51.210;7.656;2022-10-16T01:20:50;151853.59;;;12.23;100.00
44926;BME280;30662;51.210;7.656;2022-10-16T01:23:39;151813.06;;;12.07;100.00
44926;BME280;30662;51.210;7.656;2022-10-16T01:29:32;151783.94;;;11.95;100.00
44926;BME280;30662;51.210;7.656;2022-10-16T01:32:07;151808.00;;;12.05;100.00
44926;BME280;30662;51.210;7.656;2022-10-16T01:34:44;151806.75;;;12.04;100.00
44926;BME280;30662;51.210;7.656;2022-10-16T01:37:16;151799.13;;;12.01;100.00
44926;BME280;30662;51.210;7.656;2022-10-16T01:39:47;151785.22;;;11.96;100.00
44926;BME280;30662;51.210;7.656;2022-10-16T01:42:23;151809.28;;;12.05;100.00
44926;BME280;30662;51.210;7.656;2022-10-16T01:44:51;151801.69;;;12.02;100.00
44926;BME280;30662;51.210;7.656;2022-10-16T01:47:20;151785.22;;;11.96;100.00
44926;BME280;30662;51.210;7.656;2022-10-16T01:49:49;151809.28;;;12.05;100.00
44926;BME280;30662;51.210;7.656;2022-10-16T01:52:21;151800.38;;;12.02;100.00
44926;BME280;30662;51.210;7.656;2022-10-16T01:54:51;151783.94;;;11.95;100.00
44926;BME280;30662;51.210;7.656;2022-10-16T01:57:20;151777.59;;;11.93;100.00
44926;BME280;30662;51.210;7.656;2022-10-16T01:59:51;151778.84;;;11.93;100.00
44926;BME280;30662;51.210;7.656;2022-10-16T02:02:19;151772.53;;;11.91;100.00
44926;BME280;30662;51.210;7.656;2022-10-16T02:04:51;151787.75;;;11.97;100.00
44926;BME280;30662;51.210;7.656;2022-10-16T02:07:18;151794.06;;;11.99;100.00
44926;BME280;30662;51.210;7.656;2022-10-16T02:09:44;151756.03;;;11.84;100.00
44926;BME280;30662;51.210;7.656;2022-10-16T02:12:18;151772.53;;;11.91;100.00
44926;BME280;30662;51.210;7.656;2022-10-16T02:14:46;151744.56;;;11.79;100.00
44926;BME280;30662;51.210;7.656;2022-10-16T02:17:16;151742.06;;;11.78;100.00
44926;BME280;30662;51.210;7.656;2022-10-16T02:19:43;151738.25;;;11.77;100.00
44926;BME280;30662;51.210;7.656;2022-10-16T02:22:17;151754.78;;;11.83;100.00
44926;BME280;30662;51.210;7.656;2022-10-16T02:24:52;151724.31;;;11.71;100.00
44926;BME280;30662;51.210;7.656;2022-10-16T02:27:41;151721.78;;;11.70;100.00
44926;BME280;30662;51.210;7.656;2022-10-16T02:30:15;151724.31;;;11.71;100.00
44926;BME280;30662;51.210;7.656;2022-10-16T02:32:46;151700.25;;;11.62;100.00
44926;BME280;30662;51.210;7.656;2022-10-16T02:35:15;151749.72;;;11.81;100.00
44926;BME280;30662;51.210;7.656;2022-10-16T02:37:42;151737.00;;;11.76;100.00
44926;BME280;30662;51.210;7.656;2022-10-16T02:40:09;151733.22;;;11.75;100.00
44926;BME280;30662;51.210;7.656;2022-10-16T02:42:38;151719.25;;;11.69;100.00
44926;BME280;30662;51.210;7.656;2022-10-16T02:45:05;151716.72;;;11.68;100.00
44926;BME280;30662;51.210;7.656;2022-10-16T02:47:33;151695.19;;;11.59;100.00
44926;BME280;30662;51.210;7.656;2022-10-16T02:49:59;151711.69;;;11.66;100.00
44926;BME280;30662;51.210;7.656;2022-10-16T02:52:25;151678.72;;;11.53;100.00
44926;BME280;30662;51.210;7.656;2022-10-16T02:54:51;151674.91;;;11.51;100.00
44926;BME280;30662;51.210;7.656;2022-10-16T02:57:18;151690.09;;;11.57;100.00
44926;BME280;30662;51.210;7.656;2022-10-16T02:59:44;151701.53;;;11.62;100.00
44926;BME280;30662;51.210;7.656;2022-10-16T03:02:10;151706.56;;;11.64;100.00
44926;BME280;30662;51.210;7.656;2022-10-16T03:04:36;151693.94;;;11.59;100.00
44926;BME280;30662;51.210;7.656;2022-10-16T03:07:02;151705.31;;;11.64;100.00
44926;BME280;30662;51.210;7.656;2022-10-16T03:09:28;151678.72;;;11.53;100.00
44926;BME280;30662;51.210;7.656;2022-10-16T03:11:54;151691.38;;;11.58;100.00
44926;BME280;30662;51.210;7.656;2022-10-16T03:14:20;151672.38;;;11.50;100.00
44926;BME280;30662;51.210;7.656;2022-10-16T03:16:46;151696.47;;;11.60;100.00
44926;BME280;30662;51.210;7.656;2022-10-16T03:19:12;151687.56;;;11.56;100.00
44926;BME280;30662;51.210;7.656;2022-10-16T03:21:38;151692.63;;;11.58;100.00
44926;BME280;30662;51.210;7.656;2022-10-16T03:24:04;151702.78;;;11.63;100.00
44926;BME280;30662;51.210;7.656;2022-10-16T03:26:30;151702.78;;;11.63;100.00
44926;BME280;30662;51.210;7.656;2022-10-16T03:28:56;151725.56;;;11.72;100.00
44926;BME280;30662;51.210;7.656;2022-10-16T03:31:21;151724.31;;;11.71;100.00
44926;BME280;30662;51.210;7.656;2022-10-16T03:33:47;151710.38;;;11.66;100.00
44926;BME280;30662;51.210;7.656;2022-10-16T03:36:13;151705.31;;;11.64;100.00
44926;BME280;30662;51.210;7.656;2022-10-16T03:38:39;151726.84;;;11.72;100.00
44926;BME280;30662;51.210;7.656;2022-10-16T03:41:05;151701.53;;;11.62;100.00
44926;BME280;30662;51.210;7.656;2022-10-16T03:43:33;151740.78;;;11.78;100.00
44926;BME280;30662;51.210;7.656;2022-10-16T03:45:59;151731.94;;;11.74;100.00
44926;BME280;30662;51.210;7.656;2022-10-16T03:48:25;151742.06;;;11.78;100.00
44926;BME280;30662;51.210;7.656;2022-10-16T03:50:51;151719.25;;;11.69;100.00
44926;BME280;30662;51.210;7.656;2022-10-16T03:53:17;151705.31;;;11.64;100.00
44926;BME280;30662;51.210;7.656;2022-10-16T03:55:44;151691.38;;;11.58;100.00
44926;BME280;30662;51.210;7.656;2022-10-16T03:58:10;151687.56;;;11.56;100.00
44926;BME280;30662;51.210;7.656;2022-10-16T04:00:41;151712.94;;;11.67;100.00
44926;BME280;30662;51.210;7.656;2022-10-16T04:03:07;151701.53;;;11.62;100.00
44926;BME280;30662;51.210;7.656;2022-10-16T04:05:33;151692.63;;;11.58;100.00
44926;BME280;30662;51.210;7.656;2022-10-16T04:07:59;151714.22;;;11.67;100.00
44926;BME280;30662;51.210;7.656;2022-10-16T04:10:25;151706.56;;;11.64;100.00
44926;BME280;30662;51.210;7.656;2022-10-16T04:12:51;151715.47;;;11.68;100.00
44926;BME280;30662;51.210;7.656;2022-10-16T04:15:17;151726.84;;;11.72;100.00
44926;BME280;30662;51.210;7.656;2022-10-16T04:17:42;151714.22;;;11.67;100.00
44926;BME280;30662;51.210;7.656;2022-10-16T04:20:08;151721.78;;;11.70;100.00
44926;BME280;30662;51.210;7.656;2022-10-16T04:22:34;151745.84;;;11.80;100.00
44926;BME280;30662;51.210;7.656;2022-10-16T04:25:00;151707.84;;;11.65;100.00
44926;BME280;30662;51.210;7.656;2022-10-16T04:27:26;151728.09;;;11.73;100.00
44926;BME280;30662;51.210;7.656;2022-10-16T04:29:52;151716.72;;;11.68;100.00
44926;BME280;30662;51.210;7.656;2022-10-16T04:32:18;151737.00;;;11.76;100.00
44926;BME280;30662;51.210;7.656;2022-10-16T04:34:44;151697.72;;;11.60;100.00
44926;BME280;30662;51.210;7.656;2022-10-16T04:37:09;151692.63;;;11.58;100.00
44926;BME280;30662;51.210;7.656;2022-10-16T04:39:35;151714.22;;;11.67;100.00
44926;BME280;30662;51.210;7.656;2022-10-16T04:42:01;151721.78;;;11.70;100.00
44926;BME280;30662;51.210;7.656;2022-10-16T04:44:28;151723.06;;;11.71;100.00
44926;BME280;30662;51.210;7.656;2022-10-16T04:46:53;151710.38;;;11.66;100.00
44926;BME280;30662;51.210;7.656;2022-10-16T04:49:19;151700.25;;;11.62;100.00
44926;BME280;30662;51.210;7.656;2022-10-16T04:51:45;151715.47;;;11.68;100.00
44926;BME280;30662;51.210;7.656;2022-10-16T04:54:11;151716.72;;;11.68;100.00
44926;BME280;30662;51.210;7.656;2022-10-16T04:56:37;151734.47;;;11.75;100.00
44926;BME280;30662;51.210;7.656;2022-10-16T04:59:09;151725.56;;;11.72;100.00
44926;BME280;30662;51.210;7.656;2022-10-16T05:01:35;151721.78;;;11.70;100.00
44926;BME280;30662;51.210;7.656;2022-10-16T05:04:01;151723.06;;;11.71;100.00
44926;BME280;30662;51.210;7.656;2022-10-16T05:06:27;151724.31;;;11.71;100.00
44926;BME280;30662;51.210;7.656;2022-10-16T05:08:53;151725.56;;;11.72;100.00
44926;BME280;30662;51.210;7.656;2022-10-16T05:11:19;151737.00;;;11.76;100.00
44926;BME280;30662;51.210;7.656;2022-10-16T05:13:45;151715.47;;;11.68;100.00
44926;BME280;30662;51.210;7.656;2022-10-16T05:16:10;151692.63;;;11.58;100.00
44926;BME280;30662;51.210;7.656;2022-10-16T05:18:36;151692.63;;;11.58;100.00
44926;BME280;30662;51.210;7.656;2022-10-16T05:21:02;151686.31;;;11.56;100.00
44926;BME280;30662;51.210;7.656;2022-10-16T05:23:28;151673.63;;;11.51;100.00
44926;BME280;30662;51.210;7.656;2022-10-16T05:25:58;151647.06;;;11.40;100.00
44926;BME280;30662;51.210;7.656;2022-10-16T05:28:26;151672.38;;;11.50;100.00
44926;BME280;30662;51.210;7.656;2022-10-16T05:30:52;151645.78;;;11.40;100.00
44926;BME280;30662;51.210;7.656;2022-10-16T05:33:25;151639.47;;;11.37;100.00
44926;BME280;30662;51.210;7.656;2022-10-16T05:35:52;151664.78;;;11.47;100.00
44926;BME280;30662;51.210;7.656;2022-10-16T05:38:18;151677.47;;;11.52;100.00
44926;BME280;30662;51.210;7.656;2022-10-16T05:40:51;151661.00;;;11.46;100.00
44926;BME280;30662;51.210;7.656;2022-10-16T05:43:17;151672.38;;;11.50;100.00
44926;BME280;30662;51.210;7.656;2022-10-16T05:45:43;151650.84;;;11.42;100.00
44926;BME280;30662;51.210;7.656;2022-10-16T05:48:09;151677.47;;;11.52;100.00
44926;BME280;30662;51.210;7.656;2022-10-16T05:50:35;151673.63;;;11.51;100.00
44926;BME280;30662;51.210;7.656;2022-10-16T05:53:01;151673.63;;;11.51;100.00
44926;BME280;30662;51.210;7.656;2022-10-16T05:55:27;151659.72;;;11.45;100.00
44926;BME280;30662;51.210;7.656;2022-10-16T05:57:55;151685.03;;;11.55;100.00
44926;BME280;30662;51.210;7.656;2022-10-16T06:00:21;151695.19;;;11.59;100.00
44926;BME280;30662;51.210;7.656;2022-10-16T06:02:47;151707.84;;;11.65;100.00
44926;BME280;30662;51.210;7.656;2022-10-16T06:05:13;151731.94;;;11.74;100.00
44926;BME280;30662;51.210;7.656;2022-10-16T06:07:39;151738.25;;;11.77;100.00
44926;BME280;30662;51.210;7.656;2022-10-16T06:10:05;151743.31;;;11.79;100.00
44926;BME280;30662;51.210;7.656;2022-10-16T06:12:31;151759.84;;;11.85;100.00
44926;BME280;30662;51.210;7.656;2022-10-16T06:14:57;151763.63;;;11.87;100.00
44926;BME280;30662;51.210;7.656;2022-10-16T06:17:22;151724.31;;;11.71;100.00
44926;BME280;30662;51.210;7.656;2022-10-16T06:19:48;151716.72;;;11.68;100.00
44926;BME280;30662;51.210;7.656;2022-10-16T06:22:14;151730.69;;;11.74;100.00
44926;BME280;30662;51.210;7.656;2022-10-16T06:24:40;151734.47;;;11.75;100.00
44926;BME280;30662;51.210;7.656;2022-10-16T06:27:07;151753.53;;;11.83;100.00
44926;BME280;30662;51.210;7.656;2022-10-16T06:29:32;151764.91;;;11.87;100.00
44926;BME280;30662;51.210;7.656;2022-10-16T06:31:58;151742.06;;;11.78;100.00
44926;BME280;30662;51.210;7.656;2022-10-16T06:34:24;151745.84;;;11.80;100.00
44926;BME280;30662;51.210;7.656;2022-10-16T06:36:50;151756.03;;;11.84;100.00
44926;BME280;30662;51.210;7.656;2022-10-16T06:39:15;151777.59;;;11.93;100.00
44926;BME280;30662;51.210;7.656;2022-10-16T06:41:41;151796.59;;;12.00;100.00
44926;BME280;30662;51.210;7.656;2022-10-16T06:44:07;151783.94;;;11.95;100.00
44926;BME280;30662;51.210;7.656;2022-10-16T06:46:34;151751.00;;;11.82;100.00
44926;BME280;30662;51.210;7.656;2022-10-16T06:49:00;151771.25;;;11.90;100.00
44926;BME280;30662;51.210;7.656;2022-10-16T06:51:26;151783.94;;;11.95;100.00
44926;BME280;30662;51.210;7.656;2022-10-16T06:53:53;151790.25;;;11.98;100.00
44926;BME280;30662;51.210;7.656;2022-10-16T06:56:30;151796.59;;;12.00;100.00
44926;BME280;30662;51.210;7.656;2022-10-16T06:58:56;151813.06;;;12.07;100.00
44926;BME280;30662;51.210;7.656;2022-10-16T07:01:23;151851.09;;;12.22;100.00
44926;BME280;30662;51.210;7.656;2022-10-16T07:03:50;151863.78;;;12.27;100.00
44926;BME280;30662;51.210;7.656;2022-10-16T07:06:19;151885.31;;;12.36;100.00
44926;BME280;30662;51.210;7.656;2022-10-16T07:08:46;151904.31;;;12.43;100.00
44926;BME280;30662;51.210;7.656;2022-10-16T07:11:15;151882.78;;;12.35;100.00
44926;BME280;30662;51.210;7.656;2022-10-16T07:13:42;151918.28;;;12.49;100.00
44926;BME280;30662;51.210;7.656;2022-10-16T07:16:17;151949.97;;;12.62;100.00
44926;BME280;30662;51.210;7.656;2022-10-16T07:18:44;151963.94;;;12.67;100.00
44926;BME280;30662;51.210;7.656;2022-10-16T07:21:14;151969.00;;;12.69;100.00
44926;BME280;30662;51.210;7.656;2022-10-16T07:23:41;151977.84;;;12.73;100.00
44926;BME280;30662;51.210;7.656;2022-10-16T07:26:09;151956.31;;;12.64;100.00
44926;BME280;30662;51.210;7.656;2022-10-16T07:28:35;151952.50;;;12.63;100.00
44926;BME280;30662;51.210;7.656;2022-10-16T07:31:03;151951.25;;;12.62;100.00
44926;BME280;30662;51.210;7.656;2022-10-16T07:33:30;151961.34;;;12.66;100.00
44926;BME280;30662;51.210;7.656;2022-10-16T07:35:56;151946.19;;;12.60;100.00
44926;BME280;30662;51.210;7.656;2022-10-16T07:38:23;151969.00;;;12.69;100.00
44926;BME280;30662;51.210;7.656;2022-10-16T07:40:59;152014.63;;;12.88;100.00
44926;BME280;30662;51.210;7.656;2022-10-16T07:43:26;152023.53;;;12.91;100.00
44926;BME280;30662;51.210;7.656;2022-10-16T07:45:52;152059.03;;;13.06;100.00
44926;BME280;30662;51.210;7.656;2022-10-16T07:48:19;152078.03;;;13.13;100.00
44926;BME280;30662;51.210;7.656;2022-10-16T07:50:45;152095.84;;;13.20;100.00
44926;BME280;30662;51.210;7.656;2022-10-16T07:53:11;152118.66;;;13.30;100.00
44926;BME280;30662;51.210;7.656;2022-10-16T07:55:38;152062.81;;;13.07;100.00
44926;BME280;30662;51.210;7.656;2022-10-16T07:58:04;152071.66;;;13.11;100.00
44926;BME280;30662;51.210;7.656;2022-10-16T08:00:30;152071.66;;;13.11;100.00
44926;BME280;30662;51.210;7.656;2022-10-16T08:02:59;152062.81;;;13.07;100.00
44926;BME280;30662;51.210;7.656;2022-10-16T08:05:30;152070.41;;;13.10;100.00
44926;BME280;30662;51.210;7.656;2022-10-16T08:07:57;152084.38;;;13.16;100.00
44926;BME280;30662;51.210;7.656;2022-10-16T08:10:24;152099.66;;;13.22;100.00
44926;BME280;30662;51.210;7.656;2022-10-16T08:12:51;152114.88;;;13.28;100.00
44926;BME280;30662;51.210;7.656;2022-10-16T08:15:17;152174.47;;;13.52;100.00
44926;BME280;30662;51.210;7.656;2022-10-16T08:17:44;152241.72;;;13.79;100.00
44926;BME280;30662;51.210;7.656;2022-10-16T08:20:10;152213.81;;;13.68;100.00
44926;BME280;30662;51.210;7.656;2022-10-16T08:22:36;152188.44;;;13.58;100.00
44926;BME280;30662;51.210;7.656;2022-10-16T08:25:02;152183.38;;;13.56;100.00
44926;BME280;30662;51.210;7.656;2022-10-16T08:27:32;152204.94;;;13.64;100.00
44926;BME280;30662;51.210;7.656;2022-10-16T08:29:58;152206.22;;;13.65;100.00
44926;BME280;30662;51.210;7.656;2022-10-16T08:32:24;152184.66;;;13.56;100.00
44926;BME280;30662;51.210;7.656;2022-10-16T08:34:53;152180.84;;;13.55;100.00
44926;BME280;30662;51.210;7.656;2022-10-16T08:37:19;152206.22;;;13.65;100.00
44926;BME280;30662;51.210;7.656;2022-10-16T08:39:44;152203.69;;;13.64;100.00
44926;BME280;30662;51.210;7.656;2022-10-16T08:50:09;152326.78;;;14.13;100.00
44926;BME280;30662;51.210;7.656;2022-10-16T08:52:39;152307.75;;;14.05;100.00
44926;BME280;30662;51.210;7.656;2022-10-16T08:55:06;152374.97;;;14.32;100.00
44926;BME280;30662;51.210;7.656;2022-10-16T08:57:42;152408.03;;;14.46;100.00
44926;BME280;30662;51.210;7.656;2022-10-16T09:00:13;152424.53;;;14.52;100.00
44926;BME280;30662;51.210;7.656;2022-10-16T09:03:03;152438.50;;;14.58;100.00
44926;BME280;30662;51.210;7.656;2022-10-16T09:10:51;152475.31;;;14.73;100.00
44926;BME280;30662;51.210;7.656;2022-10-16T09:13:26;152444.84;;;14.60;100.00
44926;BME280;30662;51.210;7.656;2022-10-16T09:18:48;152466.41;;;14.69;100.00
44926;BME280;30662;51.210;7.656;2022-10-16T09:21:40;152537.53;;;14.98;100.00
44926;BME280;30662;51.210;7.656;2022-10-16T09:24:18;152552.78;;;15.04;100.00
44926;BME280;30662;51.210;7.656;2022-10-16T09:26:46;152627.69;;;15.34;100.00
44926;BME280;30662;51.210;7.656;2022-10-16T09:29:20;152632.81;;;15.36;100.00
44926;BME280;30662;51.210;7.656;2022-10-16T09:31:47;152623.91;;;15.32;100.00
44926;BME280;30662;51.210;7.656;2022-10-16T09:34:32;152672.19;;;15.52;100.00
44926;BME280;30662;51.210;7.656;2022-10-16T09:37:03;152773.84;;;15.92;100.00
44926;BME280;30662;51.210;7.656;2022-10-16T09:39:30;152804.34;;;16.05;97.48
44926;BME280;30662;51.210;7.656;2022-10-16T09:41:56;152720.47;;;15.71;99.34
44926;BME280;30662;51.210;7.656;2022-10-16T09:44:30;152585.78;;;15.17;100.00
44926;BME280;30662;51.210;7.656;2022-10-16T09:47:26;152601.03;;;15.23;100.00
44926;BME280;30662;51.210;7.656;2022-10-16T09:50:04;152984.91;;;16.77;89.66
44926;BME280;30662;51.210;7.656;2022-10-16T09:52:32;152997.63;;;16.82;87.67
44926;BME280;30662;51.210;7.656;2022-10-16T09:55:01;153208.72;;;17.67;84.40
44926;BME280;30662;51.210;7.656;2022-10-16T09:57:27;153645.44;;;19.41;73.41
44926;BME280;30662;51.210;7.656;2022-10-16T09:59:56;154039.25;;;20.99;65.10
44926;BME280;30662;51.210;7.656;2022-10-16T10:02:31;154148.94;;;21.42;62.33
44926;BME280;30662;51.210;7.656;2022-10-16T10:05:00;154316.09;;;22.09;59.14
44926;BME280;30662;51.210;7.656;2022-10-16T10:07:33;154501.13;;;22.83;56.17
44926;BME280;30662;51.210;7.656;2022-10-16T10:10:04;154931.53;;;24.55;50.90
44926;BME280;30662;51.210;7.656;2022-10-16T10:12:32;155352.19;;;26.22;45.67
44926;BME280;30662;51.210;7.656;2022-10-16T10:15:11;155448.16;;;26.60;43.67
44926;BME280;30662;51.210;7.656;2022-10-16T10:17:49;155967.88;;;28.67;38.29
44926;BME280;30662;51.210;7.656;2022-10-16T10:22:48;155086.22;;;25.16;43.67
44926;BME280;30662;51.210;7.656;2022-10-16T10:25:35;155605.53;;;27.23;39.40
44926;BME280;30662;51.210;7.656;2022-10-16T10:28:24;155835.94;;;28.15;36.18
44926;BME280;30662;51.210;7.656;2022-10-16T10:31:17;155938.44;;;28.55;35.82
44926;BME280;30662;51.210;7.656;2022-10-16T10:36:57;156056.28;;;29.02;34.49
44926;BME280;30662;51.210;7.656;2022-10-16T10:39:46;156206.19;;;29.62;32.89
44926;BME280;30662;51.210;7.656;2022-10-16T10:45:22;156773.00;;;31.87;28.48
44926;BME280;30662;51.210;7.656;2022-10-16T10:47:56;157096.38;;;33.15;27.44
44926;BME280;30662;51.210;7.656;2022-10-16T10:50:35;157794.03;;;35.92;24.09
44926;BME280;30662;51.210;7.656;2022-10-16T10:53:11;158039.66;;;36.89;22.42
44926;BME280;30662;51.210;7.656;2022-10-16T11:06:52;154742.47;;;23.79;43.02
44926;BME280;30662;51.210;7.656;2022-10-16T11:09:26;154784.59;;;23.96;43.14
44926;BME280;30662;51.210;7.656;2022-10-16T11:12:17;154220.34;;;21.71;49.20
44926;BME280;30662;51.210;7.656;2022-10-16T11:14:57;154007.41;;;20.86;53.39
44926;BME280;30662;51.210;7.656;2022-10-16T11:17:36;154374.78;;;22.33;48.61
44926;BME280;30662;51.210;7.656;2022-10-16T11:20:23;154113.22;;;21.28;51.38
44926;BME280;30662;51.210;7.656;2022-10-16T11:25:26;153846.75;;;20.22;56.94
44926;BME280;30662;51.210;7.656;2022-10-16T11:30:47;155611.94;;;27.26;37.51
44926;BME280;30662;51.210;7.656;2022-10-16T11:33:57;155976.84;;;28.71;33.26
44926;BME280;30662;51.210;7.656;2022-10-16T11:36:33;156356.19;;;30.22;30.41
44926;BME280;30662;51.210;7.656;2022-10-16T11:39:21;156494.63;;;30.77;29.73
44926;BME280;30662;51.210;7.656;2022-10-16T11:50:35;155550.47;;;27.01;34.68
44926;BME280;30662;51.210;7.656;2022-10-16T11:55:41;154729.69;;;23.74;42.43
44926;BME280;30662;51.210;7.656;2022-10-16T11:58:22;154446.25;;;22.61;45.70
44926;BME280;30662;51.210;7.656;2022-10-16T12:01:22;155364.94;;;26.27;38.39
44926;BME280;30662;51.210;7.656;2022-10-16T12:04:06;156651.13;;;31.39;29.23
44926;BME280;30662;51.210;7.656;2022-10-16T12:06:40;157260.75;;;33.81;25.30
44926;BME280;30662;51.210;7.656;2022-10-16T12:09:36;157761.88;;;35.79;22.84
44926;BME280;30662;51.210;7.656;2022-10-16T12:12:04;157152.91;;;33.38;25.47
44926;BME280;30662;51.210;7.656;2022-10-16T12:14:38;157231.25;;;33.69;25.34
44926;BME280;30662;51.210;7.656;2022-10-16T12:17:35;157522.84;;;34.85;23.61
44926;BME280;30662;51.210;7.656;2022-10-16T12:20:29;157912.34;;;36.39;22.20
44926;BME280;30662;51.210;7.656;2022-10-16T12:23:02;158186.28;;;37.47;20.59
44926;BME280;30662;51.210;7.656;2022-10-16T12:25:40;158177.25;;;37.44;20.20
44926;BME280;30662;51.210;7.656;2022-10-16T12:30:42;157688.63;;;35.50;21.99
44926;BME280;30662;51.210;7.656;2022-10-16T12:33:21;158191.41;;;37.49;20.32
44926;BME280;30662;51.210;7.656;2022-10-16T12:35:48;158307.19;;;37.95;19.86
44926;BME280;30662;51.210;7.656;2022-10-16T12:38:26;158229.97;;;37.65;20.22
44926;BME280;30662;51.210;7.656;2022-10-16T12:41:02;157857.00;;;36.17;21.41
44926;BME280;30662;51.210;7.656;2022-10-16T12:51:55;156219.00;;;29.67;29.89
44926;BME280;30662;51.210;7.656;2022-10-16T12:54:27;156315.09;;;30.05;29.62
44926;BME280;30662;51.210;7.656;2022-10-16T13:09:58;154730.97;;;23.75;45.88
44926;BME280;30662;51.210;7.656;2022-10-16T13:15:28;155469.88;;;26.69;37.23
44926;BME280;30662;51.210;7.656;2022-10-16T13:18:10;155012.06;;;24.87;40.06
44926;BME280;30662;51.210;7.656;2022-10-16T13:29:33;155509.53;;;26.85;37.69
44926;BME280;30662;51.210;7.656;2022-10-16T13:32:00;155508.25;;;26.84;36.23
44926;BME280;30662;51.210;7.656;2022-10-16T13:34:27;154778.25;;;23.93;42.06
44926;BME280;30662;51.210;7.656;2022-10-16T13:36:53;154092.78;;;21.20;49.88
44926;BME280;30662;51.210;7.656;2022-10-16T13:39:25;153944.91;;;20.61;53.76
44926;BME280;30662;51.210;7.656;2022-10-16T13:44:54;153541.00;;;18.99;62.28
44926;BME280;30662;51.210;7.656;2022-10-16T13:47:23;153514.25;;;18.89;64.08
44926;BME280;30662;51.210;7.656;2022-10-16T13:50:12;153432.75;;;18.56;65.67
44926;BME280;30662;51.210;7.656;2022-10-16T13:52:38;153446.78;;;18.62;66.71
44926;BME280;30662;51.210;7.656;2022-10-16T13:55:10;153486.28;;;18.78;68.20
44926;BME280;30662;51.210;7.656;2022-10-16T13:57:37;153566.47;;;19.10;67.15
44926;BME280;30662;51.210;7.656;2022-10-16T14:00:03;153537.22;;;18.98;65.63
44926;BME280;30662;51.210;7.656;2022-10-16T14:02:42;153437.84;;;18.58;66.48
44926;BME280;30662;51.210;7.656;2022-10-16T14:05:09;153392.03;;;18.40;66.67
44926;BME280;30662;51.210;7.656;2022-10-16T14:07:36;153348.75;;;18.23;67.87
44926;BME280;30662;51.210;7.656;2022-10-16T14:10:18;153276.19;;;17.94;69.30
44926;BME280;30662;51.210;7.656;2022-10-16T14:12:45;153204.91;;;17.65;71.33
44926;BME280;30662;51.210;7.656;2022-10-16T14:15:19;153151.47;;;17.44;72.62
44926;BME280;30662;51.210;7.656;2022-10-16T14:17:48;153115.88;;;17.29;73.83
44926;BME280;30662;51.210;7.656;2022-10-16T14:20:15;153124.78;;;17.33;74.48
44926;BME280;30662;51.210;7.656;2022-10-16T14:22:42;153115.88;;;17.29;75.55
44926;BME280;30662;51.210;7.656;2022-10-16T14:28:04;153100.59;;;17.23;75.99
44926;BME280;30662;51.210;7.656;2022-10-16T14:30:34;153062.44;;;17.08;78.08
44926;BME280;30662;51.210;7.656;2022-10-16T14:33:06;153062.44;;;17.08;78.31
44926;BME280;30662;51.210;7.656;2022-10-16T14:35:46;153096.78;;;17.22;78.27
44926;BME280;30662;51.210;7.656;2022-10-16T14:38:19;153168.00;;;17.50;77.52
44926;BME280;30662;51.210;7.656;2022-10-16T14:40:49;153213.84;;;17.69;77.62
44926;BME280;30662;51.210;7.656;2022-10-16T14:43:21;153129.88;;;17.35;77.44